Zingem, Belgium
Current Conditions -  °F | °C
As of 9:25 PM on Saturday 25 Oct 2014 (Local Time) from EBCV Reporting Station
Clear Clear  
Wind Chill: 52°   Ceiling: Unl
Heat Index: 52°   Visibility: 6mi
Dew Point: 48°   Wind: 8mph
Humidity: 88%   Direction: 230°SW
Pressure: 30.18"   Gusts: NA
Location:  50.9°N, 3.65°E
Report Text: EBCV 251925Z AUTO 23007KT 9999 NCD 11/09 Q1022 BLU
Loading
Personal Weather Stations






























Interactive Weather Map
Tropical Storm Tracking
New forecast layout! Learn more

10-Day Weather Forecast

Advertisements
Track Severe Weather on mobile